SAN weather

San Diego International Airport
San Diego, California, United States

Public forecast

Using degrees Fahrenheit for public forecast. Weather courtesy of forecast.io.

METAR (pilot weather report)

Retrieved 2018/12/19 13:51 UTC (1 hour ago):

KSAN 191351Z COR 00000KT 10SM FEW005 FEW250 13/11 A3015 RMK AO2 SLP210 T01330111 $

TAF (pilot weather forecast)

Retrieved 2018/12/19 12:24 UTC (2 hours ago):

TAF KSAN 191121Z 1912/2018 VRB03KT P6SM SCT250 FM192000 29008KT P6SM SCT250 FM200100 VRB04KT P6SM SCT250